Terminal Aerodrome Forecast
Issued by NWS St Louis, MO

Home | Current Version | Previous Version | Graphics & Text | Print | Product List | Glossary On
Versions: 1 2 3 4 5 6 7 8 9 10 11 12 13 14 15 16 17 18 19 20 21
882
FTUS43 KLSX 261137
TAFSTL
TAF
KSTL 261137Z 2612/2718 26007KT P6SM SCT050 BKN110
     FM261800 19008KT 6SM SHRA VCTS OVC030CB
     FM262100 01009KT 3SM SHRA VCTS OVC025CB
     FM270100 33008KT P6SM VCSH OVC015
     FM270700 29012G19KT P6SM OVC010
     FM271200 28008KT P6SM OVC015=

USA.gov is the U.S. government's official web portal to all federal, state and local government web resources and services.